Time;durP1;ratioP1;P1;durP2;ratioP2;P2;SDS_P1;SDS_P2;PMS_P1;PMS_P2;Temp;Humidity;BMP_temperature;BMP_pressure;BME280_temperature;BME280_humidity;BME280_pressure;Samples;Min_cycle;Max_cycle;Signal;HPM_P1;HPM_P2
2023/06/25 00:00:08;;;;;;;9.05;5.68;;;;;;;14.23;100.00;96293.50;1030367;28;20444;-77
2023/06/25 00:00:38;;;;;;;9.40;6.47;;;;;;;14.32;100.00;96317.47;1030309;28;20102;-77
2023/06/25 00:01:09;;;;;;;9.38;5.63;;;;;;;14.30;100.00;96309.03;1034127;28;20515;-77
2023/06/25 00:01:39;;;;;;;9.25;6.20;;;;;;;14.29;100.00;96308.25;1039258;28;20525;-77
2023/06/25 00:02:10;;;;;;;12.20;6.20;;;;;;;14.28;100.00;96311.16;1039327;28;20128;-77
2023/06/25 00:02:40;;;;;;;8.13;5.68;;;;;;;14.28;100.00;96317.22;1042536;28;20090;-76
2023/06/25 00:03:11;;;;;;;7.00;5.40;;;;;;;14.27;100.00;96310.34;1034863;28;20543;-76
2023/06/25 00:03:42;;;;;;;8.15;5.75;;;;;;;14.23;100.00;96306.69;1038599;28;20498;-76
2023/06/25 00:04:12;;;;;;;8.25;5.70;;;;;;;14.26;100.00;96316.72;1040051;28;20025;-76
2023/06/25 00:04:43;;;;;;;7.70;5.65;;;;;;;14.26;100.00;96318.56;1046856;28;20422;-76
2023/06/25 00:05:13;;;;;;;8.80;5.97;;;;;;;14.25;100.00;96317.78;1038632;28;20040;-75
2023/06/25 00:05:44;;;;;;;9.07;5.47;;;;;;;14.24;100.00;96316.19;1034626;28;20034;-77
2023/06/25 00:06:14;;;;;;;9.73;5.38;;;;;;;14.17;100.00;96304.34;1030599;28;20034;-76
2023/06/25 00:06:45;;;;;;;8.45;6.05;;;;;;;14.14;100.00;96305.66;1030824;28;20034;-76
2023/06/25 00:07:17;;;;;;;11.05;6.13;;;;;;;14.20;100.00;96309.88;1038765;28;20029;-76
2023/06/25 00:07:47;;;;;;;8.75;6.10;;;;;;;14.19;100.00;96308.28;1039749;28;20083;-77
2023/06/25 00:08:18;;;;;;;9.55;6.10;;;;;;;14.19;100.00;96312.78;1042828;28;20036;-76
2023/06/25 00:08:49;;;;;;;9.27;5.95;;;;;;;14.09;100.00;96300.44;1042828;28;20061;-76
2023/06/25 00:09:19;;;;;;;8.45;6.20;;;;;;;14.16;100.00;96314.13;1044375;28;20036;-76
2023/06/25 00:09:55;;;;;;;8.95;5.70;;;;;;;14.11;100.00;96311.47;1047150;28;20108;-76
2023/06/25 00:10:26;;;;;;;8.93;5.82;;;;;;;14.07;100.00;96305.16;1041769;28;20029;-76
2023/06/25 00:10:56;;;;;;;6.93;5.47;;;;;;;14.10;100.00;96307.28;1033429;28;20026;-75
2023/06/25 00:11:27;;;;;;;9.60;5.80;;;;;;;14.03;100.00;96304.13;1034106;28;20038;-75
2023/06/25 00:11:57;;;;;;;7.70;5.72;;;;;;;14.02;100.00;96307.84;1030516;28;20065;-76
2023/06/25 00:12:28;;;;;;;7.32;5.97;;;;;;;14.08;100.00;96312.03;1034678;28;20419;-76
2023/06/25 00:12:58;;;;;;;9.90;5.65;;;;;;;14.06;100.00;96314.16;1038467;28;20585;-77
2023/06/25 00:13:28;;;;;;;10.75;5.55;;;;;;;14.00;100.00;96302.03;1038790;28;20037;-76
2023/06/25 00:14:01;;;;;;;8.40;5.43;;;;;;;13.98;100.00;96307.56;1042828;28;20029;-76
2023/06/25 00:14:32;;;;;;;10.93;6.63;;;;;;;14.01;100.00;96312.31;1034706;28;20025;-75
2023/06/25 00:15:02;;;;;;;13.43;6.22;;;;;;;13.82;100.00;96285.75;1038431;28;20029;-76
2023/06/25 00:15:33;;;;;;;12.43;6.35;;;;;;;13.99;100.00;96308.38;1030528;28;20144;-76
2023/06/25 00:16:03;;;;;;;11.43;6.28;;;;;;;13.97;100.00;96308.63;1034386;28;20030;-76
2023/06/25 00:16:34;;;;;;;13.00;6.60;;;;;;;13.95;100.00;96308.13;1030668;28;20590;-76
2023/06/25 00:17:05;;;;;;;11.15;6.30;;;;;;;13.91;100.00;96301.78;1034423;28;20033;-76
2023/06/25 00:17:35;;;;;;;11.57;6.55;;;;;;;13.86;100.00;96299.97;1038602;28;20083;-75
2023/06/25 00:18:08;;;;;;;11.18;5.85;;;;;;;13.94;100.00;96305.75;1038959;28;20029;-75
2023/06/25 00:18:38;;;;;;;11.65;6.28;;;;;;;13.87;100.00;96301.53;1038624;28;20542;-76
2023/06/25 00:19:08;;;;;;;15.13;7.85;;;;;;;13.91;100.00;96302.56;1039704;28;20029;-76
2023/06/25 00:19:41;;;;;;;18.67;7.70;;;;;;;13.90;100.00;96308.94;1042394;28;20483;-76
2023/06/25 00:20:11;;;;;;;13.77;7.53;;;;;;;13.83;100.00;96292.59;1039056;28;20503;-76
2023/06/25 00:20:42;;;;;;;11.15;6.80;;;;;;;13.87;100.00;96303.41;1030617;28;20034;-76
2023/06/25 00:21:13;;;;;;;14.30;7.57;;;;;;;13.80;100.00;96287.84;1028970;28;20049;-75
2023/06/25 00:21:43;;;;;;;16.27;7.57;;;;;;;13.83;100.00;96300.50;1030552;28;20030;-75
2023/06/25 00:22:14;;;;;;;14.52;7.18;;;;;;;13.88;100.00;96305.78;1038861;28;20029;-76
2023/06/25 00:22:44;;;;;;;13.32;6.97;;;;;;;13.85;100.00;96303.69;1038418;28;20044;-76
2023/06/25 00:23:15;;;;;;;13.32;7.18;;;;;;;13.78;100.00;96292.63;1038827;28;20029;-75
2023/06/25 00:23:45;;;;;;;15.32;6.55;;;;;;;13.86;100.00;96305.25;1042677;28;20398;-76
2023/06/25 00:24:18;;;;;;;18.63;7.10;;;;;;;13.86;100.00;96296.56;1034448;28;20026;-74
2023/06/25 00:24:48;;;;;;;12.32;6.47;;;;;;;13.76;100.00;96289.47;1039197;28;20036;-76
2023/06/25 00:25:19;;;;;;;13.93;6.72;;;;;;;13.87;100.00;96303.41;1038168;28;20561;-75
2023/06/25 00:25:49;;;;;;;11.30;6.28;;;;;;;13.86;100.00;96304.47;1030543;28;20030;-76
2023/06/25 00:26:20;;;;;;;12.15;7.30;;;;;;;13.85;100.00;96298.41;1026496;28;20104;-76
2023/06/25 00:26:50;;;;;;;13.65;7.10;;;;;;;13.85;100.00;96294.97;1030482;28;20046;-76
2023/06/25 00:27:21;;;;;;;9.73;6.55;;;;;;;13.83;100.00;96297.88;1026485;28;20042;-75
2023/06/25 00:27:51;;;;;;;12.73;6.93;;;;;;;13.79;100.00;96294.19;1026722;28;20027;-76
2023/06/25 00:28:22;;;;;;;14.43;7.20;;;;;;;13.79;100.00;96299.47;1042813;28;20021;-76
2023/06/25 00:28:52;;;;;;;15.15;8.50;;;;;;;13.73;100.00;96284.72;1042955;28;20032;-76
2023/06/25 00:29:22;;;;;;;10.73;6.70;;;;;;;13.76;100.00;96291.31;1042504;28;20021;-76
2023/06/25 00:29:53;;;;;;;11.65;6.55;;;;;;;13.77;100.00;96296.31;1038597;28;20538;-76
2023/06/25 00:30:23;;;;;;;12.27;6.15;;;;;;;13.74;100.00;96291.56;1034435;28;20030;-76
2023/06/25 00:30:54;;;;;;;15.52;7.82;;;;;;;13.65;100.00;96280.00;1034620;28;20081;-76
2023/06/25 00:31:24;;;;;;;15.40;7.00;;;;;;;13.77;100.00;96298.94;1034036;28;20104;-76
2023/06/25 00:31:55;;;;;;;12.15;7.25;;;;;;;13.77;100.00;96301.56;1040030;28;20022;-76
2023/06/25 00:32:25;;;;;;;13.85;7.20;;;;;;;13.75;100.00;96303.72;1038641;28;20029;-77
2023/06/25 00:32:56;;;;;;;14.80;7.78;;;;;;;13.73;100.00;96299.75;1038624;28;20033;-76
2023/06/25 00:33:26;;;;;;;17.70;8.02;;;;;;;13.60;100.00;96278.16;1046644;28;20028;-76
2023/06/25 00:33:56;;;;;;;19.15;9.52;;;;;;;13.73;100.00;96295.28;1042427;28;20040;-75
2023/06/25 00:34:27;;;;;;;17.05;8.02;;;;;;;13.72;100.00;96301.63;1034901;28;20033;-76
2023/06/25 00:34:59;;;;;;;15.57;7.68;;;;;;;13.74;100.00;96304.75;1038449;28;20095;-76
2023/06/25 00:35:51;;;;;;;20.30;8.63;;;;;;;13.66;100.00;96300.03;1038826;28;20087;-76
2023/06/25 00:36:22;;;;;;;17.13;8.93;;;;;;;13.72;100.00;96298.97;1038547;28;20032;-76
2023/06/25 00:36:52;;;;;;;16.60;9.00;;;;;;;13.71;100.00;96305.28;1045212;28;20099;-76
2023/06/25 00:37:23;;;;;;;17.80;8.25;;;;;;;13.69;100.00;96299.50;1050962;28;20113;-76
2023/06/25 00:37:57;;;;;;;16.30;8.18;;;;;;;13.69;100.00;96304.78;1046653;28;20050;-76
2023/06/25 00:38:28;;;;;;;18.27;8.25;;;;;;;13.64;100.00;96288.97;1044253;28;20048;-76
2023/06/25 00:38:59;;;;;;;20.30;8.48;;;;;;;13.64;100.00;96291.59;1046027;28;20042;-76
2023/06/25 00:39:29;;;;;;;17.95;7.95;;;;;;;13.67;100.00;96298.97;1038833;28;20025;-76
2023/06/25 00:40:00;;;;;;;15.18;8.00;;;;;;;13.65;100.00;96288.72;1035021;28;20030;-76
2023/06/25 00:40:30;;;;;;;13.57;7.47;;;;;;;13.68;100.00;96301.34;1040965;28;20446;-76
2023/06/25 00:41:01;;;;;;;15.25;7.68;;;;;;;13.70;100.00;96295.00;1042518;28;20430;-75
2023/06/25 00:41:31;;;;;;;15.07;7.50;;;;;;;13.62;100.00;96291.88;1042721;28;20870;-76
2023/06/25 00:42:02;;;;;;;16.52;8.23;;;;;;;13.62;100.00;96293.72;1043139;28;20037;-76
2023/06/25 00:42:42;;;;;;;15.00;7.43;;;;;;;13.61;100.00;96297.41;1042792;28;20029;-76
2023/06/25 00:43:15;;;;;;;13.82;7.38;;;;;;;13.67;100.00;96301.59;1038574;28;20025;-76
2023/06/25 00:43:45;;;;;;;23.27;9.25;;;;;;;13.65;100.00;96299.25;1031280;28;20054;-76
2023/06/25 00:44:16;;;;;;;15.35;7.45;;;;;;;13.62;100.00;96293.72;1034388;28;20029;-75
2023/06/25 00:44:46;;;;;;;21.95;8.45;;;;;;;13.67;100.00;96293.69;1042768;28;20021;-76
2023/06/25 00:45:17;;;;;;;18.92;8.10;;;;;;;13.60;100.00;96287.91;1038580;28;20017;-76
2023/06/25 00:45:47;;;;;;;25.83;9.20;;;;;;;13.55;100.00;96285.31;1045925;28;20500;-76
2023/06/25 00:46:18;;;;;;;20.92;9.63;;;;;;;13.64;100.00;96295.00;1042887;28;20021;-75
2023/06/25 00:46:48;;;;;;;26.48;9.13;;;;;;;13.62;100.00;96293.72;1034886;28;20026;-76
2023/06/25 00:47:19;;;;;;;19.25;8.85;;;;;;;13.65;100.00;96296.63;1040365;28;20437;-76
2023/06/25 00:47:50;;;;;;;24.55;9.73;;;;;;;13.59;100.00;96281.06;1030639;28;20029;-75
2023/06/25 00:48:21;;;;;;;26.13;10.40;;;;;;;13.58;100.00;96287.38;1034441;28;20415;-76
2023/06/25 00:48:52;;;;;;;23.85;10.05;;;;;;;13.64;100.00;96288.97;1027370;28;20105;-76
2023/06/25 00:49:22;;;;;;;22.88;9.95;;;;;;;13.58;100.00;96280.28;1038821;28;20468;-76
2023/06/25 00:49:53;;;;;;;26.52;10.35;;;;;;;13.63;100.00;96292.66;1034444;28;20025;-76
2023/06/25 00:50:23;;;;;;;25.48;11.10;;;;;;;13.58;100.00;96282.09;1038626;28;20029;-77
2023/06/25 00:51:00;;;;;;;22.33;9.50;;;;;;;13.53;100.00;96276.88;1030372;28;20029;-76
2023/06/25 00:51:32;;;;;;;17.33;9.70;;;;;;;13.62;100.00;96293.72;1038359;28;20479;-76
2023/06/25 00:52:08;;;;;;;21.55;9.38;;;;;;;13.58;100.00;96287.38;1042866;28;20861;-77
2023/06/25 00:52:39;;;;;;;21.77;8.05;;;;;;;13.52;100.00;96278.72;1038839;28;20048;-75
2023/06/25 00:53:09;;;;;;;21.55;8.90;;;;;;;13.55;100.00;96280.03;1041046;28;20360;-78
2023/06/25 00:53:40;;;;;;;18.23;8.75;;;;;;;13.60;100.00;96280.00;1037352;28;20044;-76
2023/06/25 00:54:10;;;;;;;19.92;8.60;;;;;;;13.61;100.00;96292.91;1036659;28;20076;-78
2023/06/25 00:54:42;;;;;;;11.55;7.15;;;;;;;13.56;100.00;96281.59;1031891;28;20033;-77
2023/06/25 00:55:13;;;;;;;14.48;7.63;;;;;;;13.62;100.00;96285.81;1031969;28;20305;-77
2023/06/25 00:55:50;;;;;;;14.10;7.25;;;;;;;13.59;100.00;96278.44;1033479;28;20065;-77
2023/06/25 00:56:27;;;;;;;20.23;7.72;;;;;;;13.60;100.00;96280.00;1042242;28;20013;-77
2023/06/25 00:57:01;;;;;;;22.40;9.23;;;;;;;13.60;100.00;96280.78;1048094;28;20019;-76
2023/06/25 00:57:31;;;;;;;22.67;8.50;;;;;;;13.61;100.00;96279.72;1042161;28;20515;-77
2023/06/25 00:58:03;;;;;;;17.02;7.47;;;;;;;13.61;100.00;96282.38;1048136;28;20059;-76
2023/06/25 00:58:38;;;;;;;18.33;7.82;;;;;;;13.58;100.00;96282.09;1048949;28;20028;-77
2023/06/25 00:59:08;;;;;;;18.95;7.38;;;;;;;13.57;100.00;96276.06;1047593;28;20103;-77
2023/06/25 00:59:40;;;;;;;14.70;7.13;;;;;;;13.59;100.00;96275.81;1043033;28;20021;-77
2023/06/25 01:00:14;;;;;;;20.55;7.40;;;;;;;13.58;100.00;96274.19;1031900;28;20018;-76
2023/06/25 01:00:46;;;;;;;22.15;8.00;;;;;;;13.61;100.00;96279.72;1033266;28;20406;-77
2023/06/25 01:01:21;;;;;;;25.77;9.13;;;;;;;13.61;100.00;96281.56;1035817;28;20125;-76
2023/06/25 01:01:54;;;;;;;40.25;12.30;;;;;;;13.56;100.00;96268.41;1037336;28;20570;-77
2023/06/25 01:02:43;;;;;;;25.77;8.93;;;;;;;13.60;100.00;96280.00;1040012;28;20047;-77
2023/06/25 01:03:26;;;;;;;28.55;9.65;;;;;;;13.62;100.00;96273.41;1047215;28;20027;-77
2023/06/25 01:04:00;;;;;;;40.45;10.77;;;;;;;13.62;100.00;96276.06;1047924;28;20029;-77
2023/06/25 01:04:35;;;;;;;24.85;8.40;;;;;;;13.63;100.00;96276.84;1041464;28;20116;-77
2023/06/25 01:05:28;;;;;;;26.90;9.40;;;;;;;13.63;100.00;96277.63;1044126;28;20028;-77
2023/06/25 01:06:10;;;;;;;31.98;9.52;;;;;;;13.61;100.00;96271.03;1045631;28;20024;-76
2023/06/25 01:06:42;;;;;;;30.60;9.50;;;;;;;13.59;100.00;96273.94;1040466;28;20013;-77
2023/06/25 01:07:17;;;;;;;56.50;13.60;;;;;;;13.57;100.00;96272.63;1039872;28;20025;-76
2023/06/25 01:07:47;;;;;;;38.85;13.07;;;;;;;13.52;100.00;96255.00;1043753;28;20056;-76
2023/06/25 01:08:18;;;;;;;46.85;12.13;;;;;;;13.57;100.00;96270.78;1039945;28;20092;-77
2023/06/25 01:08:50;;;;;;;33.28;11.00;;;;;;;13.54;100.00;96268.69;1040037;28;20036;-77
2023/06/25 01:09:20;;;;;;;38.72;11.60;;;;;;;13.52;100.00;96262.13;1037210;28;20033;-77
2023/06/25 01:09:51;;;;;;;50.67;16.45;;;;;;;13.48;100.00;96253.13;1031866;28;20026;-76
2023/06/25 01:10:21;;;;;;;36.45;13.02;;;;;;;13.52;100.00;96262.13;1039164;28;20051;-75
2023/06/25 01:10:52;;;;;;;39.10;14.68;;;;;;;13.54;100.00;96273.94;1042724;28;20541;-77
2023/06/25 01:11:22;;;;;;;43.92;14.25;;;;;;;13.53;100.00;96266.31;1030751;28;20030;-77
2023/06/25 01:12:19;;;;;;;33.30;14.45;;;;;;;13.54;100.00;96268.69;1039999;28;20029;-78
2023/06/25 01:12:49;;;;;;;40.60;15.90;;;;;;;13.46;100.00;96256.06;1043296;28;20599;-76
2023/06/25 01:13:20;;;;;;;32.53;13.07;;;;;;;13.52;100.00;96272.66;1047616;28;20028;-77
2023/06/25 01:13:50;;;;;;;39.55;14.15;;;;;;;13.50;100.00;96272.91;1044789;28;20036;-77
2023/06/25 01:14:27;;;;;;;29.77;13.82;;;;;;;13.41;100.00;96251.59;1047901;28;20406;-78
2023/06/25 01:14:58;;;;;;;33.40;13.60;;;;;;;13.52;100.00;96270.81;1048414;28;20035;-76
2023/06/25 01:15:28;;;;;;;35.58;15.27;;;;;;;13.47;100.00;96264.75;1036825;28;20069;-77
2023/06/25 01:15:59;;;;;;;33.15;12.88;;;;;;;13.49;100.00;96263.44;1027501;28;20424;-77
2023/06/25 01:16:29;;;;;;;30.83;12.38;;;;;;;13.46;100.00;96258.69;1040138;28;20115;-77
2023/06/25 01:17:00;;;;;;;28.85;13.45;;;;;;;13.51;100.00;96273.69;1040093;28;20199;-77
2023/06/25 01:17:30;;;;;;;26.00;12.27;;;;;;;13.51;100.00;96268.41;1039737;28;20037;-77
2023/06/25 01:18:00;;;;;;;25.52;12.63;;;;;;;13.50;100.00;96264.22;1038594;28;20030;-76
2023/06/25 01:18:31;;;;;;;24.55;12.05;;;;;;;13.48;100.00;96261.03;1036823;28;20026;-77
2023/06/25 01:19:02;;;;;;;19.50;9.35;;;;;;;13.49;100.00;96267.91;1039704;28;20124;-78
2023/06/25 01:19:32;;;;;;;16.25;9.05;;;;;;;13.49;100.00;96267.91;1040107;28;20089;-78
2023/06/25 01:20:05;;;;;;;14.55;8.10;;;;;;;13.50;100.00;96266.84;1029203;28;20031;-77
2023/06/25 01:20:38;;;;;;;15.85;9.45;;;;;;;13.45;100.00;96267.66;1032235;28;20499;-76
2023/06/25 01:21:09;;;;;;;17.23;8.05;;;;;;;13.42;100.00;96255.81;1038300;28;20033;-77
2023/06/25 01:21:39;;;;;;;14.23;8.35;;;;;;;13.48;100.00;96275.03;1045587;28;20024;-78
2023/06/25 01:22:10;;;;;;;14.02;7.03;;;;;;;13.41;100.00;96251.59;1043988;28;20083;-77
2023/06/25 01:22:41;;;;;;;12.77;7.72;;;;;;;13.40;100.00;96252.63;1039597;28;20032;-77
2023/06/25 01:23:11;;;;;;;14.65;7.70;;;;;;;13.43;100.00;96260.00;1040031;28;20025;-77
2023/06/25 01:23:42;;;;;;;10.88;6.78;;;;;;;13.43;100.00;96254.72;1034964;28;20022;-77
2023/06/25 01:24:12;;;;;;;14.02;7.13;;;;;;;13.49;100.00;96260.00;1035572;28;20427;-77
2023/06/25 01:24:44;;;;;;;15.32;7.32;;;;;;;13.45;100.00;96254.47;1039924;28;20025;-77
2023/06/25 01:25:15;;;;;;;15.23;7.85;;;;;;;13.48;100.00;96259.22;1042691;28;20030;-77
2023/06/25 01:25:47;;;;;;;14.15;7.07;;;;;;;13.48;100.00;96261.84;1039873;28;20022;-76
2023/06/25 01:26:17;;;;;;;12.75;7.53;;;;;;;13.39;100.00;96247.63;1048084;28;20021;-77
2023/06/25 01:26:51;;;;;;;11.13;7.05;;;;;;;13.38;100.00;96249.50;1043743;28;20470;-78
2023/06/25 01:27:22;;;;;;;11.23;6.97;;;;;;;13.43;100.00;96254.72;1039545;28;20030;-77
2023/06/25 01:27:52;;;;;;;14.05;7.57;;;;;;;13.45;100.00;96257.13;1030397;28;20022;-77
2023/06/25 01:28:23;;;;;;;11.40;6.38;;;;;;;13.43;100.00;96262.66;1029975;28;20515;-76
2023/06/25 01:28:55;;;;;;;10.48;6.93;;;;;;;13.39;100.00;96250.28;1027290;28;20018;-76
2023/06/25 01:29:26;;;;;;;12.45;7.20;;;;;;;13.40;100.00;96260.53;1043474;28;20036;-76
2023/06/25 01:29:57;;;;;;;12.63;7.15;;;;;;;13.39;100.00;96255.56;1039729;28;20053;-76
2023/06/25 01:30:31;;;;;;;15.20;8.57;;;;;;;13.40;100.00;96255.28;1042881;28;20040;-76
2023/06/25 01:31:02;;;;;;;17.38;7.43;;;;;;;13.43;100.00;96264.50;1031501;28;20022;-75
2023/06/25 01:31:33;;;;;;;15.23;6.95;;;;;;;13.41;100.00;96253.41;1036982;28;20575;-76
2023/06/25 01:32:06;;;;;;;13.02;7.68;;;;;;;13.38;100.00;96246.03;1039016;28;20033;-76
2023/06/25 01:32:41;;;;;;;10.07;6.20;;;;;;;13.42;100.00;96262.94;1035162;28;20176;-76
2023/06/25 01:33:15;;;;;;;12.35;7.25;;;;;;;13.36;100.00;96254.22;1035221;28;20602;-76
2023/06/25 01:33:45;;;;;;;10.25;6.68;;;;;;;13.35;100.00;96251.88;1036415;28;20430;-77
2023/06/25 01:34:16;;;;;;;9.75;6.85;;;;;;;13.39;100.00;96258.19;1037878;28;20018;-76
2023/06/25 01:34:46;;;;;;;10.02;6.53;;;;;;;13.39;100.00;96261.59;1043493;28;20621;-77
2023/06/25 01:35:17;;;;;;;10.50;6.75;;;;;;;13.36;100.00;96256.06;1039236;28;20025;-76
2023/06/25 01:35:47;;;;;;;7.75;5.55;;;;;;;13.33;100.00;96252.13;1039668;28;20026;-76
2023/06/25 01:36:18;;;;;;;10.27;6.07;;;;;;;13.37;100.00;96260.28;1043358;28;20479;-76
2023/06/25 01:36:52;;;;;;;10.00;6.18;;;;;;;13.30;100.00;96247.38;1043760;28;20155;-77
2023/06/25 01:37:22;;;;;;;9.05;6.43;;;;;;;13.30;100.00;96246.59;1046738;28;20059;-76
2023/06/25 01:37:53;;;;;;;9.20;5.60;;;;;;;13.34;100.00;96251.06;1043370;28;20600;-76
2023/06/25 01:38:23;;;;;;;8.43;5.68;;;;;;;13.35;100.00;96252.66;1039863;28;20141;-76
2023/06/25 01:38:54;;;;;;;8.63;6.35;;;;;;;13.29;100.00;96248.44;1043304;28;20526;-76
2023/06/25 01:39:24;;;;;;;8.55;6.05;;;;;;;13.22;100.00;96234.72;1039290;28;20025;-77
2023/06/25 01:39:55;;;;;;;9.57;5.82;;;;;;;13.28;100.00;96252.16;1043392;28;20067;-77
2023/06/25 01:40:25;;;;;;;7.93;6.32;;;;;;;13.32;100.00;96250.56;1038969;28;20042;-77
2023/06/25 01:40:56;;;;;;;8.98;6.43;;;;;;;13.33;100.00;96256.59;1035117;28;20022;-76
2023/06/25 01:41:26;;;;;;;9.05;6.50;;;;;;;13.34;100.00;96252.91;1034718;28;20034;-77
2023/06/25 01:41:57;;;;;;;7.70;5.90;;;;;;;13.32;100.00;96253.19;1043323;28;20029;-76
2023/06/25 01:42:27;;;;;;;7.60;6.05;;;;;;;13.28;100.00;96241.59;1051648;28;20036;-77
2023/06/25 01:42:58;;;;;;;7.32;5.53;;;;;;;13.31;100.00;96251.63;1047320;28;20021;-76
2023/06/25 01:43:30;;;;;;;8.77;6.05;;;;;;;13.30;100.00;96249.22;1047460;28;20025;-76
2023/06/25 01:44:01;;;;;;;9.10;6.55;;;;;;;13.30;100.00;96255.28;1043133;28;20524;-77
2023/06/25 01:44:32;;;;;;;8.63;5.95;;;;;;;13.26;100.00;96250.81;1039112;28;20022;-77
2023/06/25 01:45:03;;;;;;;10.52;6.63;;;;;;;13.25;100.00;96242.13;1027146;28;20054;-76
2023/06/25 01:45:33;;;;;;;9.02;6.53;;;;;;;13.30;100.00;96255.28;1039196;28;20403;-76
2023/06/25 01:46:03;;;;;;;8.60;5.80;;;;;;;13.30;100.00;96252.66;1039151;28;20025;-77
2023/06/25 01:46:34;;;;;;;9.15;6.40;;;;;;;13.23;100.00;96244.22;1039728;28;20600;-76
2023/06/25 01:47:05;;;;;;;8.90;6.05;;;;;;;13.29;100.00;96248.44;1047296;28;20016;-76
2023/06/25 01:47:37;;;;;;;8.55;6.22;;;;;;;13.29;100.00;96252.94;1047593;28;20056;-76
2023/06/25 01:48:08;;;;;;;9.85;6.72;;;;;;;13.24;100.00;96245.81;1039736;28;20530;-77
2023/06/25 01:48:39;;;;;;;7.97;6.60;;;;;;;13.27;100.00;96250.56;1035155;28;20482;-76
2023/06/25 01:49:09;;;;;;;7.82;6.00;;;;;;;13.23;100.00;96246.84;1035189;28;20029;-76
2023/06/25 01:49:40;;;;;;;8.85;6.07;;;;;;;13.27;100.00;96249.75;1039334;28;20395;-76
2023/06/25 01:50:10;;;;;;;8.15;6.70;;;;;;;13.26;100.00;96254.25;1043710;28;20017;-76
2023/06/25 01:50:41;;;;;;;9.35;6.53;;;;;;;13.28;100.00;96257.41;1043159;28;20017;-76
2023/06/25 01:51:11;;;;;;;9.77;5.80;;;;;;;13.27;100.00;96247.13;1042724;28;20114;-76
2023/06/25 01:51:42;;;;;;;8.65;6.18;;;;;;;13.23;100.00;96240.78;1035013;28;20026;-76
2023/06/25 01:52:12;;;;;;;8.10;6.45;;;;;;;13.26;100.00;96241.06;1039350;28;20025;-76
2023/06/25 01:52:43;;;;;;;10.90;6.18;;;;;;;13.27;100.00;96245.28;1039062;28;20584;-77
2023/06/25 01:53:13;;;;;;;8.23;6.63;;;;;;;13.26;100.00;96246.34;1039346;28;20083;-77
2023/06/25 01:53:44;;;;;;;9.40;6.30;;;;;;;13.29;100.00;96247.66;1039092;28;20080;-77
2023/06/25 01:54:14;;;;;;;9.55;6.38;;;;;;;13.30;100.00;96250.03;1034923;28;20037;-76
2023/06/25 01:54:46;;;;;;;9.73;7.20;;;;;;;13.29;100.00;96240.53;1035184;28;20048;-76
2023/06/25 01:55:16;;;;;;;10.13;6.82;;;;;;;13.29;100.00;96245.03;1039058;28;20641;-75
2023/06/25 01:55:47;;;;;;;9.95;6.30;;;;;;;13.25;100.00;96241.34;1035420;28;20022;-76
2023/06/25 01:56:17;;;;;;;9.75;6.25;;;;;;;13.24;100.00;96243.16;1043245;28;20033;-76
2023/06/25 01:56:48;;;;;;;10.70;6.95;;;;;;;13.27;100.00;96241.84;1035041;28;20038;-76
2023/06/25 01:57:18;;;;;;;11.52;6.32;;;;;;;13.28;100.00;96246.06;1039046;28;20029;-77
2023/06/25 01:57:49;;;;;;;9.68;6.97;;;;;;;13.22;100.00;96237.38;1038978;28;20384;-76
2023/06/25 01:58:19;;;;;;;8.15;6.47;;;;;;;13.27;100.00;96245.28;1031035;28;20014;-76
2023/06/25 01:58:52;;;;;;;9.13;6.38;;;;;;;13.25;100.00;96242.13;1035312;28;20503;-76
2023/06/25 01:59:23;;;;;;;10.05;6.95;;;;;;;13.27;100.00;96247.13;1034827;28;20041;-76
2023/06/25 01:59:53;;;;;;;9.00;6.25;;;;;;;13.26;100.00;96246.34;1035884;28;20033;-77
2023/06/25 02:00:24;;;;;;;10.25;6.68;;;;;;;13.19;100.00;96237.91;1043424;28;20020;-76
2023/06/25 02:00:55;;;;;;;8.15;6.15;;;;;;;13.24;100.00;96245.00;1041012;28;20439;-76
2023/06/25 02:01:25;;;;;;;8.02;5.88;;;;;;;13.19;100.00;96236.06;1034798;28;20014;-77
2023/06/25 02:01:56;;;;;;;8.88;6.80;;;;;;;13.22;100.00;96234.72;1043222;28;20017;-75
2023/06/25 02:02:26;;;;;;;9.00;6.00;;;;;;;13.23;100.00;96236.31;1043363;28;20029;-76
2023/06/25 02:02:57;;;;;;;8.45;6.25;;;;;;;13.19;100.00;96237.91;1047327;28;20025;-76
2023/06/25 02:03:27;;;;;;;9.50;6.57;;;;;;;13.20;100.00;96239.47;1039088;28;20114;-76
2023/06/25 02:03:58;;;;;;;8.98;5.97;;;;;;;13.17;100.00;96240.78;1039116;28;20025;-77
2023/06/25 02:04:28;;;;;;;9.57;6.63;;;;;;;13.18;100.00;96237.13;1042033;28;20040;-76
2023/06/25 02:04:59;;;;;;;9.48;6.43;;;;;;;13.13;100.00;96228.41;1030956;28;20019;-76
2023/06/25 02:05:29;;;;;;;8.63;6.30;;;;;;;13.15;100.00;96231.59;1035292;28;20029;-75
2023/06/25 02:05:59;;;;;;;10.25;6.70;;;;;;;13.19;100.00;96230.00;1034983;28;20138;-76
2023/06/25 02:06:30;;;;;;;8.80;5.90;;;;;;;13.19;100.00;96233.41;1035150;28;20022;-76
2023/06/25 02:07:00;;;;;;;11.38;7.07;;;;;;;13.15;100.00;96226.31;1039101;28;20133;-76
2023/06/25 02:07:31;;;;;;;10.27;7.22;;;;;;;13.09;100.00;96222.88;1042905;28;20099;-76
2023/06/25 02:08:03;;;;;;;10.30;7.22;;;;;;;13.16;100.00;96231.31;1026843;28;20023;-77
2023/06/25 02:08:33;;;;;;;9.07;6.72;;;;;;;13.17;100.00;96230.25;1039182;28;20060;-77
2023/06/25 02:09:05;;;;;;;9.75;6.25;;;;;;;13.14;100.00;96225.50;1039018;28;20049;-77
2023/06/25 02:09:35;;;;;;;10.90;7.22;;;;;;;13.16;100.00;96227.88;1039254;28;20092;-76
2023/06/25 02:10:06;;;;;;;8.43;6.22;;;;;;;13.13;100.00;96217.88;1039131;28;20052;-76
2023/06/25 02:10:36;;;;;;;8.15;6.53;;;;;;;13.14;100.00;96225.50;1033487;28;20163;-76
2023/06/25 02:11:07;;;;;;;9.32;6.78;;;;;;;13.12;100.00;96221.56;1028313;28;20026;-77
2023/06/25 02:11:38;;;;;;;9.40;6.50;;;;;;;13.11;100.00;96220.78;1038705;28;20029;-76
2023/06/25 02:12:08;;;;;;;9.07;7.10;;;;;;;13.08;100.00;96223.16;1043199;28;20769;-76
2023/06/25 02:12:39;;;;;;;8.35;6.75;;;;;;;13.11;100.00;96222.63;1039977;28;20061;-77
2023/06/25 02:13:09;;;;;;;14.02;7.35;;;;;;;13.08;100.00;96217.91;1043296;28;20037;-76
2023/06/25 02:13:40;;;;;;;11.32;7.38;;;;;;;13.10;100.00;96229.72;1039117;28;20025;-76
2023/06/25 02:14:10;;;;;;;8.80;6.80;;;;;;;13.06;100.00;96228.69;1039267;28;20463;-77
2023/06/25 02:14:41;;;;;;;9.13;6.50;;;;;;;13.08;100.00;96228.44;1043587;28;20032;-76
2023/06/25 02:15:11;;;;;;;7.38;5.88;;;;;;;13.04;100.00;96230.78;1039281;28;20948;-77
2023/06/25 02:15:42;;;;;;;8.95;6.88;;;;;;;13.07;100.00;96224.22;1038924;28;20025;-77
2023/06/25 02:16:12;;;;;;;9.15;7.50;;;;;;;13.01;100.00;96220.81;1038806;28;20044;-76
2023/06/25 02:16:42;;;;;;;9.93;6.55;;;;;;;12.98;100.00;96222.13;1047438;28;20024;-76
2023/06/25 02:17:13;;;;;;;8.93;6.65;;;;;;;12.97;100.00;96217.88;1039171;28;20089;-77
2023/06/25 02:17:43;;;;;;;8.30;6.53;;;;;;;12.97;100.00;96220.53;1039393;28;20025;-77
2023/06/25 02:18:14;;;;;;;11.32;6.97;;;;;;;13.03;100.00;96233.69;1034975;28;20029;-76
2023/06/25 02:18:44;;;;;;;9.63;6.28;;;;;;;12.99;100.00;96228.19;1035022;28;20025;-76
2023/06/25 02:19:15;;;;;;;9.82;7.22;;;;;;;13.03;100.00;96233.69;1039467;28;20358;-76
2023/06/25 02:19:45;;;;;;;10.65;6.97;;;;;;;13.04;100.00;96224.72;1047267;28;20028;-76
2023/06/25 02:20:16;;;;;;;9.68;6.88;;;;;;;13.04;100.00;96230.00;1051312;28;20062;-75
2023/06/25 02:20:47;;;;;;;9.00;6.85;;;;;;;13.00;100.00;96227.09;1043207;28;20039;-76
2023/06/25 02:21:17;;;;;;;9.23;6.40;;;;;;;12.96;100.00;96213.69;1036729;28;20033;-76
2023/06/25 02:21:48;;;;;;;9.30;6.93;;;;;;;12.99;100.00;96222.91;1041381;28;20463;-76
2023/06/25 02:22:18;;;;;;;9.38;6.35;;;;;;;13.01;100.00;96231.34;1034683;28;20532;-75
2023/06/25 02:22:50;;;;;;;9.95;6.97;;;;;;;13.01;100.00;96230.53;1034655;28;20042;-76
2023/06/25 02:23:20;;;;;;;12.50;7.10;;;;;;;12.95;100.00;96220.00;1039262;28;20026;-76
2023/06/25 02:23:51;;;;;;;9.57;6.68;;;;;;;13.00;100.00;96228.97;1035813;28;20022;-76
2023/06/25 02:24:22;;;;;;;9.02;6.45;;;;;;;12.97;100.00;96225.78;1039420;28;20561;-76
2023/06/25 02:24:52;;;;;;;8.13;6.28;;;;;;;12.98;100.00;96221.34;1039387;28;20064;-77